Toledo, Ohio
Current Conditions -  °F | °C
As of 9:53 PM on Wednesday 26 Nov 2014 (Local Time) from KTDZ Reporting Station
Overcast Overcast  
Wind Chill: 27°   Ceiling: 2400
Heat Index: 33°   Visibility: 9mi
Dew Point: 25°   Wind: 7mph
Humidity: 72%   Direction: 350°N
Pressure: 30.09"   Gusts: NA
Location:  41.65°N, 83.54°W
Report Text: KTDZ 270253Z AUTO 35006KT 9SM OVC024 01/M04 A3009 RMK AO2 SLP194 T00061039 53001 TSNO
Loading
Personal Weather Stations






























Interactive Weather Map New forecast layout! Learn more

10-Day Weather Forecast

Advertisements
Track Severe Weather on mobile